Airfield :
LOGIN :

Register | Disclaimer

   EN    FR    IT 

 










Legend :    VFR   Marginal VFR   IFR   Intensive IFR   Very Intensive IFR
Visi :
Ceiling :
>= 8 km
>= 3000ft
5 to 8 km
1000 to 3000 ft
1500m to 5 km
500 to 1000 ft
800 to 1500m
200 to 500 ft
< 800m
< 200 ft
Symbols :   Thunderstorms  Fog  Heavy snow  Heavy precipitations  Wind > 20 kt
SIGMETs :     Misc.  Thunderstorms  Icing  Turbulence  Mountain Waves  Volcanic Ashes






- Airport Elevation : 485 ft
- IATA code : QSA


LELL - Sabadell

CURRENT METAR :
  • 032230Z AUTO 09003KT CAVOK 26/10 Q1017

EXPIRED METARs :
  • 032200Z AUTO 04004KT 340V070 CAVOK 27/11 Q1018
  • 032130Z AUTO VRB02KT CAVOK 27/09 Q1019
  • 032100Z AUTO 19001KT CAVOK 27/08 Q1019
  • 032030Z AUTO 27007KT 230V290 CAVOK 27/09 Q1019
  • 032000Z AUTO 28003KT 210V360 CAVOK 26/08 Q1017

TAF TAF LELL
Valid from the 03 at 15:00 until the 04 at 15:00 UTC


031400Z 0315/0415 13007KT 9999 FEW030 TX34/0413Z TN20/0405Z
BECMG 0317/0319 VRB04KT
BECMG 0408/0410 15007KT



MET'MAP, your aeronautical weather chart ! - Copyright ORBIFLY December 2007 - Disclaimer

ORBIFLY MET'MAP TEAM :

Programming & Development : Alexandra Zaïnal
Original concept : Baudouin d'Aumeries
Technical & hardware support : Manuel Goepfert
Assistance : Marc-Olivier Méhu




SOURCES & CREDITS :

   NOAA